Time;durP1;ratioP1;P1;durP2;ratioP2;P2;SDS_P1;SDS_P2;PMS_P1;PMS_P2;Temp;Humidity;BMP_temperature;BMP_pressure;BME280_temperature;BME280_humidity;BME280_pressure;Samples;Min_cycle;Max_cycle;Signal;HPM_P1;HPM_P2
2021/05/30 00:00:54;;;;;;;17.50;12.93;;;10.70;99.90;;;;;;5009389;28;20193;-72
2021/05/30 00:03:19;;;;;;;15.77;13.27;;;10.60;99.90;;;;;;5000537;28;20671;-71
2021/05/30 00:05:45;;;;;;;14.77;12.73;;;10.50;99.90;;;;;;4999424;28;20722;-71
2021/05/30 00:08:13;;;;;;;14.33;12.83;;;10.60;99.90;;;;;;5002556;28;20661;-71
2021/05/30 00:10:41;;;;;;;14.00;12.60;;;10.60;99.90;;;;;;5006938;28;21111;-71
2021/05/30 00:13:11;;;;;;;15.37;12.93;;;10.60;99.90;;;;;;5005536;28;21017;-71
2021/05/30 00:15:37;;;;;;;16.33;12.73;;;10.60;99.90;;;;;;5000287;28;20718;-72
2021/05/30 00:18:02;;;;;;;15.20;13.60;;;10.60;99.90;;;;;;5013768;28;20612;-71
2021/05/30 00:20:28;;;;;;;16.50;13.93;;;10.40;99.90;;;;;;5001676;28;20218;-71
2021/05/30 00:22:54;;;;;;;16.40;13.20;;;10.40;99.90;;;;;;4998713;28;20716;-71
2021/05/30 00:25:24;;;;;;;17.37;13.57;;;10.40;99.90;;;;;;5004530;28;20223;-71
2021/05/30 00:27:51;;;;;;;14.80;13.20;;;10.30;99.90;;;;;;5000810;28;20723;-71
2021/05/30 00:30:17;;;;;;;15.33;13.00;;;10.30;99.90;;;;;;4997224;28;20658;-71
2021/05/30 00:32:46;;;;;;;18.60;14.80;;;10.30;99.90;;;;;;5013303;28;20615;-72
2021/05/30 00:35:16;;;;;;;16.57;13.03;;;10.30;99.90;;;;;;5008700;28;20224;-72
2021/05/30 00:37:42;;;;;;;16.07;13.97;;;10.20;99.90;;;;;;4998961;28;23499;-71
2021/05/30 00:40:08;;;;;;;17.83;14.67;;;10.20;99.90;;;;;;5014652;28;20655;-71
2021/05/30 00:42:33;;;;;;;16.00;14.27;;;10.20;99.90;;;;;;5003325;28;20666;-73
2021/05/30 00:44:59;;;;;;;18.63;14.33;;;10.10;99.90;;;;;;5009837;28;20631;-71
2021/05/30 00:47:24;;;;;;;18.13;13.83;;;10.00;99.90;;;;;;5008412;28;20292;-71
2021/05/30 00:49:50;;;;;;;17.63;14.17;;;10.00;99.90;;;;;;5000770;28;20255;-71
2021/05/30 00:52:18;;;;;;;20.30;14.30;;;10.10;99.90;;;;;;5003288;28;20723;-71
2021/05/30 00:54:46;;;;;;;14.70;12.60;;;10.00;99.90;;;;;;5004564;28;20655;-71
2021/05/30 00:57:14;;;;;;;15.40;13.83;;;10.00;99.90;;;;;;5007768;28;20694;-71
2021/05/30 00:59:41;;;;;;;17.10;12.60;;;9.90;99.90;;;;;;5010954;28;20666;-72
2021/05/30 01:02:07;;;;;;;15.97;13.60;;;9.90;99.90;;;;;;5005938;28;21215;-72
2021/05/30 01:04:32;;;;;;;16.33;13.10;;;9.90;99.90;;;;;;5007632;28;20747;-72
2021/05/30 01:06:59;;;;;;;16.03;12.40;;;9.90;99.90;;;;;;5010426;28;20255;-71
2021/05/30 01:09:26;;;;;;;17.00;13.80;;;9.90;99.90;;;;;;5004828;28;20273;-72
2021/05/30 01:11:53;;;;;;;14.73;13.13;;;9.80;99.90;;;;;;5006814;28;20620;-71
2021/05/30 01:14:19;;;;;;;16.43;13.90;;;9.80;99.90;;;;;;5002357;28;21080;-71
2021/05/30 01:16:45;;;;;;;16.73;12.50;;;9.80;99.90;;;;;;5005828;28;20616;-71
2021/05/30 01:19:15;;;;;;;15.20;13.70;;;9.70;99.90;;;;;;5006731;28;20256;-71
2021/05/30 01:21:45;;;;;;;16.80;14.20;;;9.70;99.90;;;;;;5000214;28;20634;-71
2021/05/30 01:24:11;;;;;;;15.33;13.70;;;9.60;99.90;;;;;;5008981;28;20644;-71
2021/05/30 01:26:38;;;;;;;16.93;14.20;;;9.70;99.90;;;;;;5011621;28;20616;-72
2021/05/30 01:29:04;;;;;;;16.93;13.77;;;9.70;99.90;;;;;;5009014;28;20751;-71
2021/05/30 01:31:29;;;;;;;17.13;14.00;;;9.60;99.90;;;;;;5006430;28;20686;-71
2021/05/30 01:33:55;;;;;;;16.90;13.60;;;9.60;99.90;;;;;;5007000;28;20652;-71
2021/05/30 01:36:23;;;;;;;16.50;13.73;;;9.60;99.90;;;;;;5003866;28;20200;-71
2021/05/30 01:38:48;;;;;;;15.87;13.40;;;9.40;99.90;;;;;;5011375;28;20332;-71
2021/05/30 01:41:14;;;;;;;16.70;13.50;;;9.50;99.90;;;;;;5009883;28;20747;-71
2021/05/30 01:43:40;;;;;;;16.80;14.33;;;9.40;99.90;;;;;;5015966;28;20224;-71
2021/05/30 01:46:07;;;;;;;19.00;14.33;;;9.40;99.90;;;;;;5005754;28;20579;-71
2021/05/30 01:48:33;;;;;;;19.50;14.83;;;9.40;99.90;;;;;;5003552;28;20224;-71
2021/05/30 01:51:01;;;;;;;15.87;14.17;;;9.40;99.90;;;;;;5017989;28;21159;-71
2021/05/30 01:53:38;;;;;;;15.43;13.70;;;9.40;99.90;;;;;;5003893;28;20313;-71
2021/05/30 01:58:30;;;;;;;16.53;14.60;;;9.30;99.90;;;;;;5013167;28;20803;-70
2021/05/30 02:00:56;;;;;;;17.50;14.20;;;9.30;99.90;;;;;;5010933;28;20229;-70
2021/05/30 02:03:25;;;;;;;16.47;14.00;;;9.30;99.90;;;;;;5005992;28;21686;-71
2021/05/30 02:05:58;;;;;;;17.87;14.30;;;9.30;99.90;;;;;;5009175;28;20640;-71
2021/05/30 02:08:25;;;;;;;15.00;13.37;;;9.30;99.90;;;;;;5008192;28;20612;-71
2021/05/30 02:10:51;;;;;;;18.97;14.67;;;9.20;99.90;;;;;;4999856;28;20623;-70
2021/05/30 02:13:17;;;;;;;15.63;12.50;;;9.20;99.90;;;;;;5008104;28;20634;-71
2021/05/30 02:15:43;;;;;;;16.73;14.27;;;9.20;99.90;;;;;;5010871;28;20317;-71
2021/05/30 02:18:11;;;;;;;17.20;14.90;;;9.20;99.90;;;;;;5014059;28;20192;-71
2021/05/30 02:20:40;;;;;;;17.30;13.43;;;9.20;99.90;;;;;;5008698;28;21917;-71
2021/05/30 02:23:11;;;;;;;15.00;13.27;;;9.10;99.90;;;;;;5025717;28;20660;-71
2021/05/30 02:25:39;;;;;;;17.70;14.33;;;9.00;99.90;;;;;;5005352;28;20674;-71
2021/05/30 02:28:05;;;;;;;20.47;14.77;;;9.10;99.90;;;;;;5015406;28;20673;-71
2021/05/30 02:30:31;;;;;;;17.73;14.23;;;9.00;99.90;;;;;;5007057;28;20640;-71
2021/05/30 02:33:01;;;;;;;18.20;15.07;;;9.00;99.90;;;;;;5006650;28;21101;-71
2021/05/30 02:35:27;;;;;;;18.03;15.40;;;9.00;99.90;;;;;;5004340;28;21631;-71
2021/05/30 02:37:52;;;;;;;20.37;14.67;;;9.00;99.90;;;;;;5001730;28;20678;-71
2021/05/30 02:40:18;;;;;;;19.50;15.10;;;8.90;99.90;;;;;;5010289;28;20261;-71
2021/05/30 02:42:44;;;;;;;18.67;15.57;;;8.90;99.90;;;;;;5000356;28;20729;-71
2021/05/30 02:45:10;;;;;;;19.73;15.23;;;8.90;99.90;;;;;;5005161;28;20203;-71
2021/05/30 02:47:36;;;;;;;17.80;14.77;;;8.90;99.90;;;;;;5007789;28;20612;-71
2021/05/30 02:50:03;;;;;;;18.57;14.93;;;8.80;99.90;;;;;;5013417;28;20268;-71
2021/05/30 02:52:29;;;;;;;19.07;14.90;;;8.80;99.90;;;;;;5002955;28;20197;-71
2021/05/30 02:54:54;;;;;;;21.00;15.57;;;8.70;99.90;;;;;;5003509;28;20654;-71
2021/05/30 02:57:20;;;;;;;17.47;15.50;;;8.80;99.90;;;;;;5012126;28;21626;-71
2021/05/30 02:59:46;;;;;;;17.67;14.97;;;8.70;99.90;;;;;;5020785;28;20232;-71
2021/05/30 03:02:13;;;;;;;18.03;14.63;;;8.70;99.90;;;;;;5012394;28;20315;-71
2021/05/30 03:04:39;;;;;;;20.23;14.80;;;8.70;99.90;;;;;;5012760;28;20224;-70
2021/05/30 03:07:05;;;;;;;16.83;14.50;;;8.80;99.90;;;;;;5017175;28;20623;-71
2021/05/30 03:09:31;;;;;;;20.27;15.67;;;8.70;99.90;;;;;;5012137;28;21320;-71
2021/05/30 03:11:56;;;;;;;18.00;15.40;;;8.70;99.90;;;;;;5008443;28;20197;-71
2021/05/30 03:14:22;;;;;;;19.30;15.10;;;8.70;99.90;;;;;;5007707;28;20229;-72
2021/05/30 03:16:52;;;;;;;19.47;15.73;;;8.70;99.90;;;;;;5013814;28;20242;-70
2021/05/30 03:19:20;;;;;;;21.93;16.00;;;8.70;99.90;;;;;;5009359;28;20215;-71
2021/05/30 03:21:46;;;;;;;18.33;15.60;;;8.70;99.90;;;;;;5014202;28;20611;-71
2021/05/30 03:24:11;;;;;;;21.30;14.67;;;8.70;99.90;;;;;;5013084;28;21031;-71
2021/05/30 03:26:37;;;;;;;18.50;15.43;;;8.60;99.90;;;;;;5013796;28;20250;-71
2021/05/30 03:31:33;;;;;;;22.20;16.17;;;8.60;99.90;;;;;;5016564;28;20259;-71
2021/05/30 03:33:58;;;;;;;20.90;15.77;;;8.50;99.90;;;;;;4988473;28;20701;-71
2021/05/30 03:36:28;;;;;;;21.17;15.67;;;8.60;99.90;;;;;;5014249;28;20611;-71
2021/05/30 03:39:01;;;;;;;18.90;15.00;;;8.60;99.90;;;;;;5000273;28;20728;-71
2021/05/30 03:41:33;;;;;;;21.10;15.80;;;8.60;99.90;;;;;;5010599;28;20620;-71
2021/05/30 03:43:59;;;;;;;19.70;15.00;;;8.60;99.90;;;;;;5017541;28;20636;-71
2021/05/30 03:46:25;;;;;;;19.90;14.80;;;8.60;99.90;;;;;;5003739;28;20718;-72
2021/05/30 03:48:50;;;;;;;18.63;16.67;;;8.60;99.90;;;;;;4997898;28;20746;-71
2021/05/30 03:51:19;;;;;;;17.33;14.50;;;8.60;99.90;;;;;;5018300;28;20211;-71
2021/05/30 03:53:44;;;;;;;18.00;15.60;;;8.50;99.90;;;;;;5017645;28;20275;-71
2021/05/30 03:56:10;;;;;;;19.13;16.60;;;8.60;99.90;;;;;;5000377;28;20651;-71
2021/05/30 03:58:35;;;;;;;18.60;15.10;;;8.60;99.90;;;;;;5021994;28;20299;-71
2021/05/30 04:01:01;;;;;;;19.87;15.77;;;8.60;99.90;;;;;;5000687;28;20188;-71
2021/05/30 04:03:26;;;;;;;19.83;15.33;;;8.60;99.90;;;;;;4998932;28;20226;-71
2021/05/30 04:05:54;;;;;;;18.13;15.10;;;8.50;99.90;;;;;;4994201;28;20192;-71
2021/05/30 04:08:23;;;;;;;17.87;15.40;;;8.60;99.90;;;;;;5002597;28;20280;-71
2021/05/30 04:10:51;;;;;;;19.57;15.27;;;8.60;99.90;;;;;;5015611;28;20639;-71
2021/05/30 04:13:17;;;;;;;19.23;15.73;;;8.60;99.90;;;;;;4990307;28;20642;-71
2021/05/30 04:15:42;;;;;;;23.07;15.20;;;8.60;99.90;;;;;;4988784;28;20985;-71
2021/05/30 04:18:08;;;;;;;20.30;15.77;;;8.60;99.90;;;;;;5005724;28;20553;-70
2021/05/30 04:20:34;;;;;;;19.57;15.70;;;8.60;99.90;;;;;;5010584;28;20255;-71
2021/05/30 04:22:59;;;;;;;20.13;15.43;;;8.70;99.90;;;;;;4989698;28;20177;-71
2021/05/30 04:25:25;;;;;;;20.60;16.27;;;8.70;99.90;;;;;;5005880;28;20204;-71
2021/05/30 04:27:51;;;;;;;20.60;16.03;;;8.70;99.90;;;;;;5009477;28;20189;-71
2021/05/30 04:30:17;;;;;;;20.17;15.47;;;8.70;99.90;;;;;;4986277;28;20670;-71
2021/05/30 04:32:43;;;;;;;21.50;17.10;;;8.70;99.90;;;;;;4995412;28;20616;-71
2021/05/30 04:35:10;;;;;;;23.20;16.97;;;8.70;99.90;;;;;;5022536;28;21248;-70
2021/05/30 04:37:38;;;;;;;23.37;17.30;;;8.80;99.90;;;;;;5018297;28;20727;-71
2021/05/30 04:40:04;;;;;;;24.27;17.70;;;8.80;99.90;;;;;;5015917;28;21099;-71
2021/05/30 04:42:32;;;;;;;26.10;18.30;;;8.90;99.90;;;;;;5023863;28;20623;-71
2021/05/30 04:45:00;;;;;;;24.10;18.20;;;8.90;99.90;;;;;;5017836;28;20770;-71
2021/05/30 04:47:25;;;;;;;30.30;19.53;;;9.00;99.90;;;;;;5013378;28;21186;-71
2021/05/30 04:49:51;;;;;;;25.43;18.13;;;9.10;99.90;;;;;;5008874;28;20701;-71
2021/05/30 04:52:16;;;;;;;29.57;19.30;;;9.20;99.90;;;;;;5002633;28;20323;-71
2021/05/30 04:54:42;;;;;;;27.23;18.80;;;9.20;99.90;;;;;;4979401;28;20259;-71
2021/05/30 04:57:07;;;;;;;24.47;18.30;;;9.20;99.90;;;;;;4997559;28;20190;-71
2021/05/30 04:59:33;;;;;;;27.03;19.63;;;9.30;99.90;;;;;;4983532;28;20359;-70
2021/05/30 05:01:59;;;;;;;29.37;19.60;;;9.40;99.90;;;;;;4969888;28;20723;-71
2021/05/30 05:04:25;;;;;;;30.03;20.07;;;9.40;99.90;;;;;;4985555;28;20256;-71
2021/05/30 05:06:50;;;;;;;33.30;20.30;;;9.40;99.90;;;;;;4986503;28;20205;-72
2021/05/30 05:09:18;;;;;;;30.80;21.00;;;9.40;99.90;;;;;;4998804;28;20641;-71
2021/05/30 05:11:46;;;;;;;34.37;20.80;;;9.40;99.90;;;;;;5012084;28;20216;-71
2021/05/30 05:14:14;;;;;;;32.20;21.17;;;9.50;99.90;;;;;;4987892;28;20648;-71
2021/05/30 05:16:42;;;;;;;39.33;22.97;;;9.50;99.90;;;;;;4983560;28;20669;-71
2021/05/30 05:19:07;;;;;;;37.07;21.30;;;9.50;99.90;;;;;;4986878;28;20644;-71
2021/05/30 05:21:33;;;;;;;37.53;21.37;;;9.50;99.90;;;;;;4983585;28;20628;-70
2021/05/30 05:23:58;;;;;;;35.40;19.97;;;9.50;99.90;;;;;;4983668;28;20221;-71
2021/05/30 05:26:24;;;;;;;31.93;19.10;;;9.60;99.90;;;;;;4993356;28;20210;-71
2021/05/30 05:28:50;;;;;;;31.17;17.70;;;9.60;99.90;;;;;;4985524;28;20407;-71
2021/05/30 05:31:16;;;;;;;33.30;18.77;;;9.60;99.90;;;;;;4991746;28;20200;-71
2021/05/30 05:33:44;;;;;;;28.17;17.37;;;9.60;99.90;;;;;;4990775;28;20649;-71
2021/05/30 05:36:12;;;;;;;24.37;16.00;;;9.70;99.90;;;;;;4985855;28;20224;-71
2021/05/30 05:38:38;;;;;;;27.57;16.50;;;9.70;99.90;;;;;;4993922;28;20674;-72
2021/05/30 05:41:06;;;;;;;23.43;15.80;;;9.70;99.90;;;;;;4989451;28;20613;-73
2021/05/30 05:43:32;;;;;;;25.97;16.37;;;9.70;99.90;;;;;;4992941;28;20213;-70
2021/05/30 05:45:57;;;;;;;27.57;15.47;;;9.60;99.90;;;;;;4995706;28;21214;-72
2021/05/30 05:48:23;;;;;;;26.07;15.87;;;9.60;99.90;;;;;;4993646;28;20666;-71
2021/05/30 05:50:51;;;;;;;28.17;16.70;;;9.60;99.90;;;;;;4991170;28;20227;-72
2021/05/30 05:53:19;;;;;;;29.93;17.00;;;9.70;99.90;;;;;;4998495;28;20221;-71
2021/05/30 05:55:45;;;;;;;24.77;16.60;;;9.60;99.90;;;;;;4998578;28;20726;-72
2021/05/30 05:58:11;;;;;;;26.10;16.43;;;9.60;99.90;;;;;;5000637;28;21183;-72
2021/05/30 06:00:37;;;;;;;24.43;16.47;;;9.70;99.90;;;;;;4997674;28;20194;-72
2021/05/30 06:03:03;;;;;;;24.80;17.27;;;9.70;99.90;;;;;;4979584;28;21222;-73
2021/05/30 06:05:29;;;;;;;27.27;16.33;;;9.60;99.90;;;;;;4966235;28;20192;-72
2021/05/30 06:07:56;;;;;;;22.37;16.00;;;9.70;99.90;;;;;;4986349;28;21187;-72
2021/05/30 06:10:26;;;;;;;25.20;16.43;;;9.70;99.90;;;;;;4994669;28;21243;-72
2021/05/30 06:12:55;;;;;;;26.30;16.80;;;9.70;99.90;;;;;;4998312;28;20674;-73
2021/05/30 06:15:24;;;;;;;23.40;16.40;;;9.70;99.90;;;;;;5000466;28;20639;-72
2021/05/30 06:17:54;;;;;;;24.20;16.87;;;9.80;99.90;;;;;;5005278;28;20608;-71
2021/05/30 06:20:23;;;;;;;23.77;15.93;;;9.80;99.90;;;;;;4994837;28;20639;-71
2021/05/30 06:22:49;;;;;;;21.67;16.20;;;9.80;99.90;;;;;;4996365;28;20712;-71
2021/05/30 06:25:15;;;;;;;24.73;16.93;;;9.90;99.90;;;;;;4986210;28;20732;-73
2021/05/30 06:27:43;;;;;;;23.20;16.40;;;10.00;99.90;;;;;;4996733;28;20631;-72
2021/05/30 06:30:10;;;;;;;24.20;16.23;;;9.90;99.90;;;;;;4977232;28;20746;-71
2021/05/30 06:32:35;;;;;;;29.13;16.73;;;10.00;99.90;;;;;;4974590;28;20927;-72
2021/05/30 06:35:02;;;;;;;21.77;15.57;;;10.00;99.90;;;;;;4970724;28;22175;-71
2021/05/30 06:37:27;;;;;;;24.40;16.40;;;10.00;99.90;;;;;;4974846;28;20716;-70
2021/05/30 06:39:53;;;;;;;27.20;17.00;;;10.10;99.90;;;;;;4986016;28;20687;-72
2021/05/30 06:42:19;;;;;;;24.63;17.13;;;10.10;99.90;;;;;;4992457;28;20198;-71
2021/05/30 06:44:47;;;;;;;25.80;15.87;;;10.10;99.90;;;;;;4988330;28;20609;-71
2021/05/30 06:47:13;;;;;;;24.40;16.43;;;10.20;99.90;;;;;;4988930;28;20221;-72
2021/05/30 06:49:39;;;;;;;20.60;15.73;;;10.20;99.90;;;;;;4991952;28;20759;-73
2021/05/30 06:52:05;;;;;;;22.20;15.87;;;10.30;99.90;;;;;;4993700;28;20202;-71
2021/05/30 06:54:30;;;;;;;20.93;14.90;;;10.30;99.90;;;;;;4997638;28;21057;-70
2021/05/30 06:56:58;;;;;;;25.77;15.50;;;10.30;99.90;;;;;;4986318;28;20715;-70
2021/05/30 06:59:24;;;;;;;27.63;17.13;;;10.40;99.90;;;;;;4983134;28;20201;-70
2021/05/30 07:01:51;;;;;;;27.00;15.90;;;10.40;99.90;;;;;;4979020;28;20774;-71
2021/05/30 07:04:17;;;;;;;23.10;15.27;;;10.40;99.90;;;;;;4994930;28;20232;-71
2021/05/30 07:06:48;;;;;;;20.23;15.80;;;10.50;99.90;;;;;;4988234;28;20673;-71
2021/05/30 07:09:13;;;;;;;22.87;14.57;;;10.60;99.90;;;;;;4989513;28;20222;-70
2021/05/30 07:11:39;;;;;;;19.90;14.57;;;10.60;99.90;;;;;;4994885;28;21226;-70
2021/05/30 07:14:04;;;;;;;21.60;14.10;;;10.80;99.90;;;;;;4994776;28;20225;-71
2021/05/30 07:16:30;;;;;;;19.07;14.67;;;10.80;99.90;;;;;;4986096;28;20196;-72
2021/05/30 07:18:55;;;;;;;16.40;13.00;;;10.80;99.90;;;;;;4987430;28;20214;-71
2021/05/30 07:21:22;;;;;;;23.43;14.57;;;11.00;99.90;;;;;;4981380;28;20614;-71
2021/05/30 07:23:49;;;;;;;16.93;14.23;;;10.90;99.90;;;;;;4995253;28;20228;-72
2021/05/30 07:26:15;;;;;;;20.63;14.57;;;10.90;99.90;;;;;;4999446;28;20651;-73
2021/05/30 07:28:44;;;;;;;22.23;14.60;;;11.00;99.90;;;;;;5011383;28;20659;-72
2021/05/30 07:31:13;;;;;;;18.50;13.53;;;11.00;99.90;;;;;;4992520;28;20205;-72
2021/05/30 07:33:41;;;;;;;16.77;12.70;;;11.00;99.90;;;;;;4994727;28;21037;-72
2021/05/30 07:36:06;;;;;;;17.30;13.23;;;11.10;99.90;;;;;;4983365;28;20656;-72
2021/05/30 07:38:33;;;;;;;17.50;13.30;;;11.10;99.90;;;;;;4985372;28;20678;-73
2021/05/30 07:40:59;;;;;;;16.57;13.60;;;11.20;99.90;;;;;;5005444;28;20190;-72
2021/05/30 07:43:26;;;;;;;15.70;12.20;;;11.20;99.90;;;;;;4993158;28;21061;-73
2021/05/30 07:45:52;;;;;;;19.43;13.57;;;11.30;99.90;;;;;;4992750;28;20654;-73
2021/05/30 07:48:20;;;;;;;14.33;11.40;;;11.30;99.90;;;;;;4994364;28;21266;-72
2021/05/30 07:50:49;;;;;;;17.13;11.80;;;11.40;99.90;;;;;;4997746;28;20204;-72
2021/05/30 07:53:17;;;;;;;16.23;12.13;;;11.40;99.90;;;;;;4979774;28;20640;-72
2021/05/30 07:55:44;;;;;;;13.67;12.17;;;11.50;99.90;;;;;;4990883;28;20746;-73
2021/05/30 07:58:10;;;;;;;14.53;11.07;;;11.60;99.90;;;;;;4986564;28;20704;-72
2021/05/30 08:00:36;;;;;;;13.63;11.90;;;11.60;99.90;;;;;;4996612;28;20755;-72
2021/05/30 08:03:02;;;;;;;16.17;12.03;;;11.70;99.90;;;;;;4981551;28;20620;-71
2021/05/30 08:05:28;;;;;;;14.83;12.40;;;11.80;99.90;;;;;;4980336;28;20202;-72
2021/05/30 08:07:54;;;;;;;15.97;13.13;;;11.90;99.90;;;;;;4981364;28;20676;-71
2021/05/30 08:10:22;;;;;;;18.50;12.30;;;12.00;99.90;;;;;;4981109;28;20651;-70
2021/05/30 08:12:48;;;;;;;14.73;12.57;;;12.00;99.90;;;;;;4975802;28;21262;-72
2021/05/30 08:15:15;;;;;;;13.80;11.70;;;12.10;99.90;;;;;;4974566;28;20648;-73
2021/05/30 08:17:43;;;;;;;18.00;12.63;;;12.20;99.90;;;;;;4966930;28;20628;-72
2021/05/30 08:20:10;;;;;;;18.33;11.87;;;12.20;99.90;;;;;;4970557;28;21707;-73
2021/05/30 08:22:37;;;;;;;13.17;11.27;;;12.20;99.90;;;;;;4984506;28;20623;-72
2021/05/30 08:25:03;;;;;;;13.90;10.70;;;12.30;99.90;;;;;;4981954;28;20954;-73
2021/05/30 08:27:29;;;;;;;14.60;11.00;;;12.30;99.90;;;;;;4980568;28;20722;-72
2021/05/30 08:29:54;;;;;;;16.80;11.50;;;12.40;99.90;;;;;;4989145;28;20677;-72
2021/05/30 08:32:23;;;;;;;15.00;10.60;;;12.40;99.90;;;;;;4985458;28;20185;-73
2021/05/30 08:34:49;;;;;;;16.47;10.43;;;12.40;99.90;;;;;;4975428;28;20260;-73
2021/05/30 08:37:17;;;;;;;13.67;10.50;;;12.50;99.90;;;;;;4981136;28;20620;-72
2021/05/30 08:39:46;;;;;;;18.67;12.83;;;12.60;99.90;;;;;;4985914;28;20201;-72
2021/05/30 08:42:12;;;;;;;13.10;10.93;;;12.70;99.90;;;;;;4989290;28;20611;-72
2021/05/30 08:44:38;;;;;;;12.37;10.90;;;12.70;99.90;;;;;;4978463;28;20636;-72
2021/05/30 08:47:04;;;;;;;11.70;10.30;;;12.80;99.90;;;;;;4982164;28;21015;-73
2021/05/30 08:49:30;;;;;;;15.93;10.80;;;12.80;99.90;;;;;;4983494;28;20225;-73
2021/05/30 08:51:55;;;;;;;13.57;10.53;;;12.90;99.90;;;;;;4983585;28;20680;-72
2021/05/30 08:54:21;;;;;;;12.70;10.07;;;12.90;99.90;;;;;;4994343;28;20713;-73
2021/05/30 08:56:48;;;;;;;14.00;10.90;;;13.00;99.90;;;;;;4984770;28;20788;-71
2021/05/30 08:59:28;;;;;;;13.07;10.87;;;13.00;99.90;;;;;;4998232;28;20764;-72
2021/05/30 09:02:13;;;;;;;13.10;10.63;;;13.10;99.90;;;;;;4993681;28;20608;-72
2021/05/30 09:04:41;;;;;;;12.87;10.57;;;13.10;99.90;;;;;;4979708;28;20640;-73
2021/05/30 09:07:08;;;;;;;14.23;11.20;;;13.20;99.90;;;;;;4986734;28;20625;-73
2021/05/30 09:09:42;;;;;;;12.87;11.23;;;13.20;99.90;;;;;;4966908;28;21285;-73
2021/05/30 09:12:29;;;;;;;12.80;11.50;;;13.20;99.90;;;;;;4990379;28;20755;-72
2021/05/30 09:14:56;;;;;;;14.67;11.50;;;13.30;99.90;;;;;;4981957;28;21076;-73
2021/05/30 09:17:27;;;;;;;17.07;11.70;;;13.30;99.90;;;;;;4988903;28;20615;-72
2021/05/30 09:19:54;;;;;;;12.23;10.73;;;13.40;99.90;;;;;;4986588;28;20659;-72
2021/05/30 09:22:30;;;;;;;11.13;10.00;;;13.50;99.90;;;;;;4985637;28;20619;-72
2021/05/30 09:25:15;;;;;;;12.07;9.80;;;13.60;99.90;;;;;;4986305;28;20640;-73
2021/05/30 09:27:50;;;;;;;12.20;10.40;;;13.70;99.90;;;;;;4982303;28;20621;-73
2021/05/30 09:30:39;;;;;;;11.43;9.43;;;13.80;99.90;;;;;;5000518;28;20675;-72
2021/05/30 09:33:14;;;;;;;12.37;9.00;;;13.90;99.90;;;;;;4983010;28;20637;-74
2021/05/30 09:35:39;;;;;;;13.00;9.87;;;13.90;99.90;;;;;;4979880;28;21214;-73
2021/05/30 09:38:27;;;;;;;11.70;9.40;;;14.10;99.90;;;;;;4983180;28;20651;-72
2021/05/30 09:40:56;;;;;;;10.80;9.03;;;14.20;99.90;;;;;;4992594;28;20186;-72
2021/05/30 09:43:27;;;;;;;15.50;9.43;;;14.20;99.90;;;;;;4998666;28;20632;-72
2021/05/30 09:46:06;;;;;;;14.10;10.13;;;14.30;99.90;;;;;;5013212;28;20616;-72
2021/05/30 09:48:34;;;;;;;10.20;9.20;;;14.30;99.90;;;;;;4997732;28;20631;-72
2021/05/30 09:53:52;;;;;;;12.30;11.00;;;14.60;99.90;;;;;;5004440;28;20780;-72
2021/05/30 09:56:31;;;;;;;13.17;10.57;;;14.70;99.90;;;;;;4996374;28;20671;-72
2021/05/30 09:58:59;;;;;;;14.17;11.00;;;14.70;99.90;;;;;;4999150;28;20652;-73
2021/05/30 10:01:26;;;;;;;12.07;10.17;;;14.70;99.90;;;;;;4999900;28;20627;-73
2021/05/30 10:03:56;;;;;;;12.50;9.90;;;14.80;99.90;;;;;;4999777;28;20628;-73
2021/05/30 10:06:23;;;;;;;15.87;10.33;;;14.80;99.90;;;;;;5016936;28;20608;-72
2021/05/30 10:08:49;;;;;;;11.20;9.40;;;14.90;99.90;;;;;;5000719;28;21219;-73
2021/05/30 10:11:18;;;;;;;10.77;9.73;;;14.90;99.90;;;;;;5003288;28;20611;-73
2021/05/30 10:13:46;;;;;;;10.90;9.33;;;15.00;99.90;;;;;;4995825;28;20663;-73
2021/05/30 10:16:14;;;;;;;13.23;10.47;;;15.10;99.90;;;;;;4998892;28;20652;-74
2021/05/30 10:18:47;;;;;;;11.93;9.67;;;15.10;99.90;;;;;;5003996;28;21244;-73
2021/05/30 10:21:22;;;;;;;13.97;10.70;;;15.20;99.90;;;;;;5001253;28;20644;-72
2021/05/30 10:23:52;;;;;;;12.90;11.03;;;15.30;99.90;;;;;;5016047;28;21322;-72
2021/05/30 10:26:25;;;;;;;15.43;11.20;;;15.40;99.90;;;;;;4989409;28;20628;-72
2021/05/30 10:29:08;;;;;;;11.93;10.50;;;15.50;99.90;;;;;;4995879;28;20715;-73
2021/05/30 10:31:38;;;;;;;12.53;10.80;;;15.60;99.90;;;;;;5001424;28;20615;-72
2021/05/30 10:34:10;;;;;;;11.60;9.90;;;15.70;99.90;;;;;;4998000;28;21673;-71
2021/05/30 10:36:37;;;;;;;11.07;9.77;;;15.70;99.90;;;;;;4988581;28;20693;-71
2021/05/30 10:39:29;;;;;;;12.33;10.57;;;15.70;99.90;;;;;;4994025;28;20670;-70
2021/05/30 10:42:07;;;;;;;13.60;10.60;;;15.70;99.90;;;;;;4995851;28;20628;-70
2021/05/30 10:44:53;;;;;;;12.87;10.67;;;15.90;99.90;;;;;;4990601;28;20628;-70
2021/05/30 10:47:52;;;;;;;13.27;11.20;;;16.00;99.90;;;;;;4981292;28;20616;-71
2021/05/30 10:50:20;;;;;;;15.03;11.67;;;16.10;99.90;;;;;;4998871;28;20674;-71
2021/05/30 10:52:48;;;;;;;15.70;11.00;;;16.10;99.90;;;;;;4998669;28;21091;-71
2021/05/30 10:55:33;;;;;;;13.00;10.80;;;16.20;99.90;;;;;;5003500;28;20663;-71
2021/05/30 10:58:15;;;;;;;15.30;11.30;;;16.30;99.90;;;;;;5001108;28;20648;-72
2021/05/30 11:00:41;;;;;;;11.20;9.80;;;16.30;99.90;;;;;;4995919;28;20624;-73
2021/05/30 11:03:11;;;;;;;11.33;9.13;;;16.40;99.90;;;;;;4991948;28;21261;-73
2021/05/30 11:05:57;;;;;;;13.67;9.40;;;16.60;99.90;;;;;;4991592;28;20201;-73
2021/05/30 11:08:35;;;;;;;12.10;9.90;;;16.60;99.90;;;;;;4988188;28;20648;-73
2021/05/30 11:11:24;;;;;;;10.20;8.60;;;16.70;99.90;;;;;;4996948;28;20604;-73
2021/05/30 11:14:16;;;;;;;10.13;9.13;;;16.80;99.90;;;;;;4993429;28;20675;-73
2021/05/30 11:16:47;;;;;;;12.00;8.40;;;16.90;99.90;;;;;;4991496;28;20682;-73
2021/05/30 11:19:17;;;;;;;9.70;8.70;;;17.00;99.90;;;;;;4992485;28;20651;-72
2021/05/30 11:21:50;;;;;;;8.63;7.93;;;17.10;99.90;;;;;;4995079;28;21215;-73
2021/05/30 11:24:17;;;;;;;9.97;8.60;;;17.20;99.90;;;;;;4997154;28;20958;-73
2021/05/30 11:27:04;;;;;;;9.80;8.00;;;17.40;99.90;;;;;;4996190;28;21219;-72
2021/05/30 11:29:30;;;;;;;9.70;7.87;;;17.50;99.90;;;;;;4978739;28;20738;-73
2021/05/30 11:31:59;;;;;;;10.17;8.13;;;17.60;99.90;;;;;;4986605;28;21104;-72
2021/05/30 11:34:32;;;;;;;10.67;7.27;;;17.70;99.90;;;;;;4981551;28;20656;-72
2021/05/30 11:37:11;;;;;;;10.60;7.93;;;17.90;99.90;;;;;;4979665;28;20659;-72
2021/05/30 11:39:43;;;;;;;9.10;8.10;;;18.00;99.90;;;;;;4983038;28;20652;-71
2021/05/30 11:42:09;;;;;;;10.60;8.30;;;18.10;99.90;;;;;;4974429;28;20625;-71
2021/05/30 11:44:35;;;;;;;11.30;7.70;;;18.20;99.90;;;;;;4982157;28;21642;-71
2021/05/30 11:47:03;;;;;;;10.27;8.00;;;18.30;99.90;;;;;;4984932;28;20277;-73
2021/05/30 11:49:37;;;;;;;7.70;6.83;;;18.40;99.90;;;;;;4978744;28;20217;-71
2021/05/30 11:52:07;;;;;;;9.53;7.80;;;18.50;99.90;;;;;;4988601;28;20624;-71
2021/05/30 11:54:49;;;;;;;10.80;6.67;;;18.70;99.90;;;;;;4990122;28;20644;-69
2021/05/30 11:57:19;;;;;;;8.67;7.20;;;18.80;99.90;;;;;;4996610;28;20616;-69
2021/05/30 11:59:56;;;;;;;7.57;6.87;;;18.90;99.90;;;;;;4989202;28;20751;-70
2021/05/30 12:02:33;;;;;;;7.63;6.90;;;19.00;99.90;;;;;;4996721;28;20616;-70
2021/05/30 12:05:00;;;;;;;13.23;8.20;;;19.10;99.90;;;;;;5001654;28;20641;-69
2021/05/30 12:07:26;;;;;;;8.97;7.53;;;19.20;99.90;;;;;;4981298;28;20625;-69
2021/05/30 12:09:58;;;;;;;7.37;6.77;;;19.30;99.90;;;;;;4986540;28;20747;-69
2021/05/30 12:12:25;;;;;;;9.00;7.77;;;19.40;99.90;;;;;;4996300;28;20663;-70
2021/05/30 12:14:51;;;;;;;7.80;7.10;;;19.50;99.90;;;;;;4997568;28;20760;-69
2021/05/30 12:17:20;;;;;;;9.30;7.70;;;19.60;99.90;;;;;;4993368;28;20691;-69
2021/05/30 12:19:46;;;;;;;8.80;7.90;;;19.70;99.90;;;;;;4995640;28;20664;-70
2021/05/30 12:22:28;;;;;;;8.87;7.93;;;19.80;99.90;;;;;;4989276;28;20623;-69
2021/05/30 12:24:55;;;;;;;9.80;8.90;;;19.90;99.90;;;;;;4987349;28;20640;-69
2021/05/30 12:27:22;;;;;;;9.70;7.60;;;19.90;99.90;;;;;;4991956;28;20624;-72
2021/05/30 12:29:51;;;;;;;8.87;7.10;;;20.00;99.90;;;;;;5006753;28;20668;-72
2021/05/30 12:32:19;;;;;;;9.83;7.50;;;20.00;99.90;;;;;;4990591;28;20625;-72
2021/05/30 12:34:49;;;;;;;8.47;7.63;;;20.10;99.90;;;;;;4990899;28;20656;-72
2021/05/30 12:37:18;;;;;;;10.80;8.60;;;20.20;99.90;;;;;;4991943;28;20620;-72
2021/05/30 12:39:43;;;;;;;9.60;8.60;;;20.30;99.90;;;;;;4991198;28;20759;-72
2021/05/30 12:42:16;;;;;;;11.20;8.30;;;20.40;99.90;;;;;;4986809;28;20631;-72
2021/05/30 12:44:54;;;;;;;10.70;9.47;;;20.50;99.90;;;;;;4988348;28;20705;-72
2021/05/30 12:47:31;;;;;;;10.60;9.50;;;20.60;99.90;;;;;;5001306;28;20623;-72